Time;durP1;ratioP1;P1;durP2;ratioP2;P2;SDS_P1;SDS_P2;PMS_P1;PMS_P2;Temp;Humidity;BMP_temperature;BMP_pressure;BME280_temperature;BME280_humidity;BME280_pressure;Samples;Min_cycle;Max_cycle;Signal;HPM_P1;HPM_P2
2023/12/25 00:01:03;;;;;;;11.48;2.40;;;12.10;99.90;;;;;;5080154;28;20042;-46
2023/12/25 00:03:30;;;;;;;11.27;2.40;;;12.00;99.90;;;;;;5087440;28;20036;-46
2023/12/25 00:05:55;;;;;;;10.43;2.63;;;12.00;99.90;;;;;;5083705;28;20062;-46
2023/12/25 00:08:21;;;;;;;10.18;2.63;;;12.00;99.90;;;;;;5077439;28;20045;-47
2023/12/25 00:10:47;;;;;;;11.85;2.60;;;12.00;99.90;;;;;;5073623;28;20451;-46
2023/12/25 00:13:13;;;;;;;11.50;2.60;;;12.00;99.90;;;;;;5071056;28;20039;-50
2023/12/25 00:15:38;;;;;;;12.75;2.70;;;12.00;99.90;;;;;;5082219;28;20088;-47
2023/12/25 00:18:04;;;;;;;11.38;2.88;;;12.00;99.90;;;;;;5061154;28;20048;-48
2023/12/25 00:20:30;;;;;;;12.10;2.55;;;12.00;99.90;;;;;;5077267;28;20500;-49
2023/12/25 00:22:56;;;;;;;13.50;2.50;;;12.00;99.90;;;;;;5078184;28;20040;-48
2023/12/25 00:25:21;;;;;;;12.23;2.60;;;12.00;99.90;;;;;;5080014;28;20470;-47
2023/12/25 00:27:47;;;;;;;13.25;2.72;;;12.00;99.90;;;;;;5080340;28;20097;-47
2023/12/25 00:30:13;;;;;;;16.20;2.90;;;;;;;;;;5065285;28;20346;-46
2023/12/25 00:32:39;;;;;;;11.50;2.58;;;11.90;99.90;;;;;;5083613;28;20116;-47
2023/12/25 00:35:04;;;;;;;12.48;2.85;;;11.90;99.90;;;;;;5078559;28;20485;-46
2023/12/25 00:37:30;;;;;;;13.75;2.47;;;11.90;99.90;;;;;;5080280;28;20402;-47
2023/12/25 00:39:56;;;;;;;10.00;2.63;;;;;;;;;;5080433;28;20075;-47
2023/12/25 00:42:22;;;;;;;15.65;2.90;;;11.90;99.90;;;;;;5080357;28;20055;-46
2023/12/25 00:44:47;;;;;;;10.52;2.33;;;11.90;99.90;;;;;;5082391;28;20036;-46
2023/12/25 00:47:13;;;;;;;14.13;2.85;;;11.80;99.90;;;;;;5084435;28;20139;-46
2023/12/25 00:49:39;;;;;;;15.70;2.63;;;11.90;99.90;;;;;;5081723;28;20052;-46
2023/12/25 00:52:04;;;;;;;13.45;2.58;;;11.70;99.90;;;;;;5082134;28;20058;-47
2023/12/25 00:54:31;;;;;;;15.45;3.00;;;11.70;99.90;;;;;;5084103;28;20125;-48
2023/12/25 00:56:57;;;;;;;11.10;2.53;;;11.70;99.90;;;;;;5079810;28;20473;-46
2023/12/25 00:59:23;;;;;;;15.85;3.10;;;11.70;99.90;;;;;;5080040;28;20231;-47
2023/12/25 01:01:49;;;;;;;9.77;2.60;;;11.70;99.90;;;;;;5081206;28;20167;-47
2023/12/25 01:04:15;;;;;;;12.35;2.78;;;11.60;99.90;;;;;;5083029;28;20071;-46
2023/12/25 01:06:41;;;;;;;12.13;2.85;;;11.60;99.90;;;;;;5069762;28;20082;-46
2023/12/25 01:09:06;;;;;;;13.70;2.80;;;11.60;99.90;;;;;;5079630;28;20036;-47
2023/12/25 01:11:32;;;;;;;11.77;3.03;;;11.60;99.90;;;;;;5082105;28;20032;-46
2023/12/25 01:13:58;;;;;;;15.32;2.83;;;11.50;99.90;;;;;;5085263;28;20073;-46
2023/12/25 01:16:24;;;;;;;13.20;2.40;;;11.50;99.90;;;;;;5081563;28;20397;-48
2023/12/25 01:18:50;;;;;;;13.70;2.67;;;11.40;99.90;;;;;;5081080;28;20508;-46
2023/12/25 01:21:16;;;;;;;13.73;2.80;;;11.40;99.90;;;;;;5084753;28;20044;-46
2023/12/25 01:23:42;;;;;;;10.18;2.92;;;11.40;99.90;;;;;;5086085;28;20125;-46
2023/12/25 01:26:07;;;;;;;13.82;2.85;;;11.40;99.90;;;;;;5088935;28;20047;-46
2023/12/25 01:28:33;;;;;;;12.88;2.60;;;11.30;99.90;;;;;;5082624;28;20060;-46
2023/12/25 01:30:58;;;;;;;10.65;2.40;;;11.30;99.90;;;;;;5091088;28;20451;-49
2023/12/25 01:33:25;;;;;;;14.30;2.88;;;11.30;99.90;;;;;;5091490;28;20097;-48
2023/12/25 01:35:51;;;;;;;11.77;2.80;;;11.30;99.90;;;;;;5085996;28;20048;-48
2023/12/25 01:38:16;;;;;;;13.07;2.40;;;11.30;99.90;;;;;;5087543;28;20055;-46
2023/12/25 01:40:45;;;;;;;10.82;2.50;;;11.40;99.90;;;;;;5087074;28;20125;-47
2023/12/25 01:43:11;;;;;;;11.45;2.47;;;11.40;99.90;;;;;;5086053;28;20040;-46
2023/12/25 01:45:36;;;;;;;10.80;2.80;;;11.40;99.90;;;;;;5083128;28;20109;-47
2023/12/25 01:48:02;;;;;;;11.88;2.83;;;11.40;99.90;;;;;;5087130;28;20073;-46
2023/12/25 01:50:28;;;;;;;15.63;3.17;;;11.40;99.90;;;;;;5082776;28;20036;-46
2023/12/25 01:52:55;;;;;;;15.05;3.42;;;11.40;99.90;;;;;;5090867;28;20040;-46
2023/12/25 01:55:20;;;;;;;15.25;3.00;;;11.50;99.90;;;;;;5088692;28;20038;-46
2023/12/25 01:57:46;;;;;;;15.35;2.80;;;11.50;99.90;;;;;;5069073;28;20054;-46
2023/12/25 02:00:12;;;;;;;18.10;3.63;;;11.40;99.90;;;;;;5085646;28;20032;-46
2023/12/25 02:02:39;;;;;;;15.65;3.10;;;11.40;99.90;;;;;;5089166;28;20047;-47
2023/12/25 02:05:06;;;;;;;11.75;2.53;;;11.40;99.90;;;;;;5087475;28;20044;-46
2023/12/25 02:07:32;;;;;;;11.40;2.60;;;11.30;99.90;;;;;;5087733;28;20043;-47
2023/12/25 02:09:58;;;;;;;15.55;3.00;;;11.30;99.90;;;;;;5083670;28;20508;-46
2023/12/25 02:12:24;;;;;;;9.90;2.75;;;11.30;99.90;;;;;;5087854;28;20036;-46
2023/12/25 02:14:49;;;;;;;12.43;2.30;;;11.30;99.90;;;;;;5088677;28;20049;-47
2023/12/25 02:17:15;;;;;;;13.30;3.08;;;11.30;99.90;;;;;;5085542;28;20362;-47
2023/12/25 02:19:45;;;;;;;11.70;2.47;;;11.20;99.90;;;;;;5089718;28;20046;-46
2023/12/25 02:22:12;;;;;;;15.77;3.05;;;11.20;99.90;;;;;;5085292;28;20520;-47
2023/12/25 02:24:55;;;;;;;10.52;2.40;;;11.20;99.90;;;;;;5086133;28;20406;-46
2023/12/25 02:27:21;;;;;;;10.35;2.70;;;11.10;99.90;;;;;;5083571;28;20051;-46
2023/12/25 02:29:47;;;;;;;14.70;2.88;;;11.10;99.90;;;;;;5086556;28;20401;-46
2023/12/25 02:32:12;;;;;;;11.63;2.50;;;11.10;99.90;;;;;;5090463;28;20036;-48
2023/12/25 02:34:39;;;;;;;13.93;2.63;;;11.10;99.90;;;;;;5090690;28;20063;-50
2023/12/25 02:37:05;;;;;;;15.70;3.20;;;11.10;99.90;;;;;;5083227;28;20644;-47
2023/12/25 02:39:31;;;;;;;11.32;2.45;;;11.10;99.90;;;;;;5086725;28;20074;-49
2023/12/25 02:41:56;;;;;;;9.90;2.30;;;11.10;99.90;;;;;;5083543;28;20497;-48
2023/12/25 02:44:22;;;;;;;11.35;2.95;;;11.00;99.90;;;;;;5086228;28;20044;-46
2023/12/25 02:46:48;;;;;;;14.35;2.40;;;11.00;99.90;;;;;;5083971;28;20037;-47
2023/12/25 02:49:13;;;;;;;12.68;2.85;;;11.00;99.90;;;;;;5088166;28;20085;-49
2023/12/25 02:51:39;;;;;;;11.85;2.28;;;10.90;99.90;;;;;;5083507;28;20033;-47
2023/12/25 02:54:04;;;;;;;10.23;2.25;;;10.90;99.90;;;;;;5087113;28;20040;-50
2023/12/25 02:56:30;;;;;;;11.02;2.63;;;10.90;99.90;;;;;;5085336;28;20054;-47
2023/12/25 02:58:55;;;;;;;10.10;2.15;;;10.90;99.90;;;;;;5088590;28;20036;-46
2023/12/25 03:01:22;;;;;;;9.73;2.85;;;10.90;99.90;;;;;;5083893;28;20391;-47
2023/12/25 03:03:48;;;;;;;10.75;2.47;;;10.80;99.90;;;;;;5086657;28;20086;-48
2023/12/25 03:06:13;;;;;;;10.38;2.28;;;10.90;99.90;;;;;;5088559;28;20470;-46
2023/12/25 03:08:39;;;;;;;10.13;2.35;;;10.90;99.90;;;;;;5090410;28;20093;-46
2023/12/25 03:11:06;;;;;;;10.68;2.38;;;10.80;99.90;;;;;;5082238;28;20127;-47
2023/12/25 03:13:32;;;;;;;9.75;2.20;;;10.80;99.90;;;;;;5090385;28;20485;-48
2023/12/25 03:15:57;;;;;;;12.63;2.90;;;10.80;99.90;;;;;;5091080;28;20124;-47
2023/12/25 03:18:23;;;;;;;10.63;2.15;;;10.80;99.90;;;;;;5087447;28;20504;-46
2023/12/25 03:20:49;;;;;;;11.48;2.47;;;10.80;99.90;;;;;;5089348;28;20123;-47
2023/12/25 03:23:14;;;;;;;8.93;2.35;;;10.90;99.90;;;;;;5088689;28;20051;-46
2023/12/25 03:25:40;;;;;;;9.85;2.30;;;10.90;99.90;;;;;;5083774;28;20081;-46
2023/12/25 03:28:05;;;;;;;8.10;1.80;;;10.90;99.90;;;;;;5088793;28;20516;-46
2023/12/25 03:30:31;;;;;;;7.88;2.00;;;10.80;99.90;;;;;;5088752;28;20042;-46
2023/12/25 03:32:57;;;;;;;8.75;2.15;;;10.90;99.90;;;;;;5083886;28;20077;-48
2023/12/25 03:35:22;;;;;;;11.73;2.20;;;10.90;99.90;;;;;;5065377;28;20393;-50
2023/12/25 03:37:48;;;;;;;8.07;2.17;;;10.80;99.90;;;;;;5043453;28;20041;-49
2023/12/25 03:40:14;;;;;;;9.30;1.63;;;10.80;99.90;;;;;;5081000;28;20109;-51
2023/12/25 03:42:39;;;;;;;8.70;1.70;;;10.90;99.90;;;;;;5079405;28;20040;-47
2023/12/25 03:45:05;;;;;;;7.63;1.55;;;10.90;99.90;;;;;;5084787;28;20177;-47
2023/12/25 03:47:31;;;;;;;9.55;1.95;;;10.90;99.90;;;;;;5079379;28;20405;-46
2023/12/25 03:49:56;;;;;;;6.50;1.92;;;10.90;99.90;;;;;;5081746;28;20043;-46
2023/12/25 03:52:22;;;;;;;10.48;2.20;;;10.90;99.90;;;;;;5082749;28;20044;-46
2023/12/25 03:54:47;;;;;;;10.70;2.10;;;10.90;99.90;;;;;;5085431;28;20031;-46
2023/12/25 03:57:13;;;;;;;7.22;1.58;;;10.90;99.90;;;;;;5086494;28;20503;-45
2023/12/25 03:59:39;;;;;;;9.05;1.92;;;10.90;99.90;;;;;;5083842;28;20039;-48
2023/12/25 04:02:05;;;;;;;9.57;1.70;;;10.90;99.90;;;;;;5081828;28;20385;-46
2023/12/25 04:04:30;;;;;;;10.40;1.75;;;10.90;99.90;;;;;;5063821;28;20051;-48
2023/12/25 04:06:57;;;;;;;8.75;1.80;;;10.90;99.90;;;;;;5081645;28;20036;-47
2023/12/25 04:09:23;;;;;;;9.77;1.90;;;10.90;99.90;;;;;;5079286;28;20437;-46
2023/12/25 04:11:48;;;;;;;8.45;2.00;;;10.90;99.90;;;;;;5082003;28;20079;-47
2023/12/25 04:14:14;;;;;;;8.75;1.95;;;10.90;99.90;;;;;;5084179;28;20036;-47
2023/12/25 04:16:39;;;;;;;7.97;1.67;;;10.90;99.90;;;;;;5082623;28;20044;-47
2023/12/25 04:19:05;;;;;;;8.15;1.73;;;10.90;99.90;;;;;;5063862;28;20032;-46
2023/12/25 04:21:31;;;;;;;10.40;1.90;;;11.00;99.90;;;;;;5083325;28;20404;-46
2023/12/25 04:23:58;;;;;;;10.63;2.00;;;10.90;99.90;;;;;;5085173;28;20040;-49
2023/12/25 04:26:24;;;;;;;7.88;2.10;;;11.00;99.90;;;;;;5081847;28;20404;-48
2023/12/25 04:28:51;;;;;;;8.23;2.10;;;11.00;99.90;;;;;;5079647;28;20048;-47
2023/12/25 04:31:17;;;;;;;8.77;1.60;;;11.00;99.90;;;;;;5081529;28;20040;-49
2023/12/25 04:33:43;;;;;;;8.55;1.80;;;11.00;99.90;;;;;;5083560;28;20059;-46
2023/12/25 04:36:10;;;;;;;7.45;1.80;;;11.00;99.90;;;;;;5081755;28;20039;-47
2023/12/25 04:38:37;;;;;;;8.68;2.28;;;11.00;99.90;;;;;;5081236;28;20053;-49
2023/12/25 04:41:03;;;;;;;9.30;2.03;;;11.10;99.90;;;;;;5084389;28;20055;-49
2023/12/25 04:43:29;;;;;;;7.45;1.98;;;11.10;99.90;;;;;;5080575;28;20044;-47
2023/12/25 04:45:54;;;;;;;10.38;1.90;;;11.10;99.90;;;;;;5082129;28;20044;-49
2023/12/25 04:48:20;;;;;;;7.72;1.48;;;11.20;99.90;;;;;;5082923;28;20177;-46
2023/12/25 04:50:49;;;;;;;9.38;1.73;;;11.20;99.90;;;;;;5079939;28;20044;-46
2023/12/25 04:53:15;;;;;;;10.55;1.73;;;11.20;99.90;;;;;;5077618;28;20068;-47
2023/12/25 04:55:41;;;;;;;7.53;1.92;;;11.20;99.90;;;;;;5063919;28;20144;-46
2023/12/25 04:58:07;;;;;;;8.07;1.90;;;11.20;99.90;;;;;;5079952;28;20083;-46
2023/12/25 05:00:33;;;;;;;9.30;2.00;;;11.20;99.90;;;;;;5084430;28;20071;-46
2023/12/25 05:02:59;;;;;;;7.95;1.88;;;11.20;99.90;;;;;;5089176;28;20047;-46
2023/12/25 05:05:25;;;;;;;7.25;2.13;;;11.20;99.90;;;;;;5082421;28;20067;-46
2023/12/25 05:07:54;;;;;;;6.57;2.00;;;11.30;99.90;;;;;;5086313;28;20040;-47
2023/12/25 05:10:19;;;;;;;6.97;2.05;;;11.30;99.90;;;;;;5085447;28;20517;-46
2023/12/25 05:12:45;;;;;;;7.60;2.20;;;11.30;99.90;;;;;;5090730;28;20152;-48
2023/12/25 05:15:10;;;;;;;14.63;2.63;;;11.30;99.90;;;;;;5090409;28;20040;-45
2023/12/25 05:17:36;;;;;;;7.40;1.70;;;11.20;99.90;;;;;;5082948;28;20048;-46
2023/12/25 05:20:02;;;;;;;12.75;2.20;;;11.20;99.90;;;;;;5083431;28;20091;-46
2023/12/25 05:22:28;;;;;;;10.88;1.92;;;11.20;99.90;;;;;;5084381;28;20080;-46
2023/12/25 05:24:53;;;;;;;12.65;2.28;;;11.20;99.90;;;;;;5086050;28;20055;-47
2023/12/25 05:27:19;;;;;;;11.43;2.70;;;11.20;99.90;;;;;;5069482;28;20036;-46
2023/12/25 05:29:44;;;;;;;11.23;2.10;;;11.20;99.90;;;;;;5084521;28;20032;-46
2023/12/25 05:32:10;;;;;;;15.20;2.33;;;11.20;99.90;;;;;;5081389;28;20044;-50
2023/12/25 05:34:36;;;;;;;8.55;1.90;;;11.10;99.90;;;;;;5083914;28;20047;-47
2023/12/25 05:37:02;;;;;;;11.77;2.33;;;11.20;99.90;;;;;;5085005;28;20032;-48
2023/12/25 05:39:27;;;;;;;10.38;2.60;;;11.10;99.90;;;;;;5088656;28;20508;-48
2023/12/25 05:41:53;;;;;;;12.82;2.40;;;11.10;99.90;;;;;;5088178;28;20304;-46
2023/12/25 05:44:19;;;;;;;12.93;2.50;;;11.10;99.90;;;;;;5072245;28;20036;-47
2023/12/25 05:46:45;;;;;;;12.60;2.47;;;11.10;99.90;;;;;;5088310;28;20499;-48
2023/12/25 05:49:10;;;;;;;12.07;2.47;;;11.10;99.90;;;;;;5086991;28;20466;-46
2023/12/25 05:51:36;;;;;;;8.48;2.25;;;11.10;99.90;;;;;;5082856;28;20071;-47
2023/12/25 05:54:01;;;;;;;10.38;2.53;;;11.10;99.90;;;;;;5086251;28;20401;-46
2023/12/25 05:56:27;;;;;;;9.63;2.05;;;11.10;99.90;;;;;;5088072;28;20044;-48
2023/12/25 05:58:53;;;;;;;15.25;2.75;;;11.20;99.90;;;;;;5088005;28;20553;-46
2023/12/25 06:01:18;;;;;;;12.00;2.55;;;11.10;99.90;;;;;;5084879;28;20501;-47
2023/12/25 06:03:44;;;;;;;9.75;2.35;;;11.10;99.90;;;;;;5082365;28;20435;-48
2023/12/25 06:06:10;;;;;;;16.08;2.72;;;11.10;99.90;;;;;;5082739;28;20042;-47
2023/12/25 06:08:36;;;;;;;11.20;2.17;;;11.10;99.90;;;;;;5083908;28;20040;-47
2023/12/25 06:11:02;;;;;;;9.32;2.08;;;11.10;99.90;;;;;;5086630;28;20075;-47
2023/12/25 06:13:27;;;;;;;11.90;2.17;;;11.10;99.90;;;;;;5067699;28;20100;-45
2023/12/25 06:15:54;;;;;;;12.45;2.50;;;11.10;99.90;;;;;;5067358;28;20067;-47
2023/12/25 06:18:19;;;;;;;10.10;2.50;;;11.00;99.90;;;;;;5086381;28;20048;-46
2023/12/25 06:20:46;;;;;;;8.98;2.72;;;11.00;99.90;;;;;;5089490;28;20169;-47
2023/12/25 06:23:11;;;;;;;12.30;2.30;;;11.00;99.90;;;;;;5084768;28;20069;-46
2023/12/25 06:25:37;;;;;;;11.70;2.72;;;11.00;99.90;;;;;;5081145;28;20536;-46
2023/12/25 06:28:03;;;;;;;10.32;2.08;;;11.00;99.90;;;;;;5086543;28;20061;-46
2023/12/25 06:30:29;;;;;;;11.35;2.03;;;10.90;99.90;;;;;;5082696;28;20055;-46
2023/12/25 06:32:55;;;;;;;11.82;1.90;;;10.90;99.90;;;;;;5083666;28;20043;-46
2023/12/25 06:35:21;;;;;;;14.95;2.45;;;10.90;99.90;;;;;;5081316;28;20052;-46
2023/12/25 06:37:47;;;;;;;12.85;2.63;;;10.90;99.90;;;;;;5078736;28;20036;-48
2023/12/25 06:40:13;;;;;;;10.43;2.22;;;10.90;99.90;;;;;;5078422;28;20490;-45
2023/12/25 06:42:38;;;;;;;8.68;2.30;;;10.80;99.90;;;;;;5075901;28;20051;-47
2023/12/25 06:45:08;;;;;;;8.40;2.10;;;10.80;99.90;;;;;;5079612;28;20043;-46
2023/12/25 06:47:34;;;;;;;8.45;1.67;;;10.80;99.90;;;;;;5079776;28;20052;-46
2023/12/25 06:50:00;;;;;;;11.45;1.90;;;10.70;99.90;;;;;;5080562;28;21282;-46
2023/12/25 06:52:27;;;;;;;9.98;2.20;;;10.70;99.90;;;;;;5076769;28;20490;-47
2023/12/25 06:54:52;;;;;;;8.83;1.80;;;10.70;99.90;;;;;;5077051;28;20117;-46
2023/12/25 06:57:18;;;;;;;12.32;2.50;;;10.70;99.90;;;;;;5078864;28;20541;-46
2023/12/25 06:59:44;;;;;;;10.52;1.98;;;10.70;99.90;;;;;;5083372;28;20040;-46
2023/12/25 07:02:10;;;;;;;9.25;1.92;;;10.70;99.90;;;;;;5078301;28;20054;-47
2023/12/25 07:04:36;;;;;;;11.32;2.15;;;10.70;99.90;;;;;;5078399;28;20417;-47
2023/12/25 07:07:02;;;;;;;14.30;2.45;;;10.60;99.90;;;;;;5078873;28;20041;-48
2023/12/25 07:09:28;;;;;;;12.48;2.03;;;10.60;99.90;;;;;;5077129;28;20036;-47
2023/12/25 07:11:54;;;;;;;9.48;2.00;;;10.60;99.90;;;;;;5078814;28;20126;-47
2023/12/25 07:14:20;;;;;;;11.75;1.70;;;10.60;99.90;;;;;;5079085;28;20184;-48
2023/12/25 07:16:46;;;;;;;12.43;2.20;;;10.60;99.90;;;;;;5078445;28;20474;-47
2023/12/25 07:19:11;;;;;;;11.57;2.75;;;10.60;99.90;;;;;;5063080;28;20044;-46
2023/12/25 07:21:37;;;;;;;9.73;2.45;;;10.60;99.90;;;;;;5061633;28;20040;-47
2023/12/25 07:24:04;;;;;;;13.77;2.15;;;10.60;99.90;;;;;;5075792;28;20055;-48
2023/12/25 07:26:30;;;;;;;10.45;2.30;;;10.50;99.90;;;;;;5078148;28;20055;-48
2023/12/25 07:28:56;;;;;;;9.57;1.85;;;10.50;99.90;;;;;;5078379;28;20032;-47
2023/12/25 07:31:23;;;;;;;7.45;1.88;;;10.40;99.90;;;;;;5078704;28;20044;-46
2023/12/25 07:33:50;;;;;;;14.63;2.72;;;10.40;99.90;;;;;;5075917;28;20044;-46
2023/12/25 07:36:16;;;;;;;11.40;2.38;;;10.40;99.90;;;;;;5079133;28;20135;-47
2023/12/25 07:38:41;;;;;;;10.18;2.05;;;10.30;99.90;;;;;;5074547;28;20415;-46
2023/12/25 07:41:11;;;;;;;9.68;2.20;;;10.30;99.90;;;;;;5076647;28;20048;-47
2023/12/25 07:43:37;;;;;;;10.13;2.13;;;10.20;99.90;;;;;;5084985;28;20040;-46
2023/12/25 07:46:06;;;;;;;11.32;2.00;;;10.20;99.90;;;;;;5083130;28;20112;-46
2023/12/25 07:48:32;;;;;;;7.63;1.80;;;10.20;99.90;;;;;;5082057;28;20416;-46
2023/12/25 07:50:57;;;;;;;11.32;2.08;;;10.10;99.90;;;;;;5082778;28;20036;-46
2023/12/25 07:53:23;;;;;;;7.85;2.15;;;10.10;99.90;;;;;;5082191;28;20416;-46
2023/12/25 07:55:49;;;;;;;10.32;1.70;;;10.00;99.90;;;;;;5077963;28;20044;-47
2023/12/25 07:58:14;;;;;;;10.57;2.10;;;10.00;99.90;;;;;;5082612;28;20047;-46
2023/12/25 08:00:42;;;;;;;10.90;1.98;;;10.00;99.90;;;;;;5085911;28;20090;-46
2023/12/25 08:03:11;;;;;;;6.15;1.90;;;9.90;99.90;;;;;;5081429;28;20193;-46
2023/12/25 08:05:38;;;;;;;9.57;2.03;;;9.90;99.90;;;;;;5082895;28;20064;-47
2023/12/25 08:08:04;;;;;;;11.50;2.00;;;9.90;99.90;;;;;;5076833;28;20351;-46
2023/12/25 08:10:30;;;;;;;9.82;2.10;;;10.00;99.90;;;;;;5082518;28;20051;-48
2023/12/25 08:12:56;;;;;;;8.65;2.20;;;10.00;99.90;;;;;;5084815;28;20888;-48
2023/12/25 08:15:21;;;;;;;8.35;1.92;;;9.90;99.90;;;;;;5085136;28;20085;-46
2023/12/25 08:17:47;;;;;;;11.70;1.98;;;9.70;99.90;;;;;;5080626;28;20055;-47
2023/12/25 08:20:12;;;;;;;7.07;1.55;;;9.80;99.90;;;;;;5084905;28;20042;-46
2023/12/25 08:22:38;;;;;;;10.88;2.25;;;9.70;99.90;;;;;;5086618;28;20546;-47
2023/12/25 08:25:04;;;;;;;9.60;1.70;;;9.70;99.90;;;;;;5083485;28;20393;-46
2023/12/25 08:27:30;;;;;;;9.82;2.13;;;9.80;99.90;;;;;;5082853;28;20093;-48
2023/12/25 08:29:56;;;;;;;12.55;2.30;;;9.90;99.90;;;;;;5088442;28;20036;-47
2023/12/25 08:32:21;;;;;;;12.80;1.90;;;9.90;99.90;;;;;;5083814;28;20040;-46
2023/12/25 08:34:47;;;;;;;9.45;2.10;;;9.90;99.90;;;;;;5087245;28;20517;-46
2023/12/25 08:37:12;;;;;;;13.32;2.42;;;9.80;99.90;;;;;;5083984;28;20153;-46
2023/12/25 08:39:38;;;;;;;12.02;2.53;;;9.70;99.90;;;;;;5085548;28;20417;-47
2023/12/25 08:42:04;;;;;;;12.73;2.20;;;9.80;99.90;;;;;;5086657;28;20043;-49
2023/12/25 08:44:32;;;;;;;13.13;2.42;;;9.70;99.90;;;;;;5049465;28;20044;-48
2023/12/25 08:46:58;;;;;;;13.88;2.38;;;9.70;99.90;;;;;;5077985;28;20477;-48
2023/12/25 08:49:24;;;;;;;11.80;2.13;;;9.80;99.90;;;;;;5079117;28;20397;-46
2023/12/25 08:51:50;;;;;;;11.35;2.28;;;9.80;99.90;;;;;;5085853;28;20032;-49
2023/12/25 08:54:16;;;;;;;12.40;2.60;;;9.80;99.90;;;;;;5087344;28;20888;-47
2023/12/25 08:56:42;;;;;;;9.70;2.05;;;9.80;99.90;;;;;;5092462;28;20036;-46
2023/12/25 08:59:09;;;;;;;10.70;2.33;;;9.80;99.90;;;;;;5092966;28;20040;-47
2023/12/25 09:01:35;;;;;;;12.15;2.17;;;9.80;99.90;;;;;;5093263;28;20036;-47
2023/12/25 09:04:01;;;;;;;12.30;2.13;;;9.90;99.90;;;;;;5096194;28;20044;-48
2023/12/25 09:06:27;;;;;;;13.57;2.58;;;10.00;99.90;;;;;;5093184;28;20464;-47
2023/12/25 09:08:52;;;;;;;17.13;2.90;;;10.00;99.90;;;;;;5075832;28;20075;-49
2023/12/25 09:11:18;;;;;;;10.95;2.33;;;10.00;99.90;;;;;;5092688;28;20032;-47
2023/12/25 09:13:44;;;;;;;11.73;2.50;;;10.10;99.90;;;;;;5070968;28;20429;-47
2023/12/25 09:16:10;;;;;;;9.82;2.10;;;10.00;99.90;;;;;;5093449;28;20556;-47
2023/12/25 09:18:36;;;;;;;17.35;2.50;;;10.10;99.90;;;;;;5092763;28;20135;-45
2023/12/25 09:21:02;;;;;;;10.43;2.47;;;10.20;99.90;;;;;;5087464;28;20032;-46
2023/12/25 09:23:28;;;;;;;13.65;2.55;;;10.10;99.90;;;;;;5090287;28;20066;-46
2023/12/25 09:25:54;;;;;;;12.20;2.33;;;10.20;99.90;;;;;;5091213;28;20055;-46
2023/12/25 09:28:20;;;;;;;12.57;2.55;;;10.20;99.90;;;;;;5090765;28;20401;-46
2023/12/25 09:30:46;;;;;;;10.35;1.98;;;10.40;99.90;;;;;;5090012;28;20067;-46
2023/12/25 09:33:11;;;;;;;8.27;2.13;;;10.30;99.90;;;;;;5091040;28;20481;-47
2023/12/25 09:35:37;;;;;;;9.75;2.15;;;10.30;99.90;;;;;;5092646;28;20538;-46
2023/12/25 09:38:03;;;;;;;8.40;2.00;;;10.40;99.90;;;;;;5092309;28;20116;-47
2023/12/25 09:40:30;;;;;;;11.77;2.35;;;10.30;99.90;;;;;;5086848;28;20047;-46
2023/12/25 09:43:01;;;;;;;16.35;2.50;;;10.40;99.90;;;;;;5075479;28;20388;-47
2023/12/25 09:45:32;;;;;;;12.55;2.47;;;10.30;99.90;;;;;;5092982;28;20576;-46
2023/12/25 09:47:58;;;;;;;12.00;2.30;;;10.40;99.90;;;;;;5091873;28;20047;-47
2023/12/25 09:50:24;;;;;;;10.82;1.80;;;10.30;99.90;;;;;;5087456;28;20029;-46
2023/12/25 09:52:50;;;;;;;12.70;1.88;;;10.40;99.90;;;;;;5091927;28;20035;-46
2023/12/25 09:55:15;;;;;;;9.45;2.22;;;10.40;99.90;;;;;;5094148;28;20053;-46
2023/12/25 09:57:43;;;;;;;9.63;2.30;;;10.40;99.90;;;;;;5092779;28;20420;-48
2023/12/25 10:00:09;;;;;;;10.43;2.20;;;10.40;99.90;;;;;;5093221;28;20158;-47
2023/12/25 10:02:41;;;;;;;12.18;2.13;;;10.40;99.90;;;;;;5093424;28;20271;-46
2023/12/25 10:05:07;;;;;;;9.95;2.00;;;10.50;99.90;;;;;;5088634;28;20044;-47
2023/12/25 10:07:33;;;;;;;14.98;2.10;;;10.60;99.90;;;;;;5090786;28;20389;-48
2023/12/25 10:09:59;;;;;;;11.15;2.78;;;10.70;99.90;;;;;;5092543;28;20044;-46
2023/12/25 10:12:25;;;;;;;11.15;2.30;;;10.70;99.90;;;;;;5093102;28;20036;-48
2023/12/25 10:14:51;;;;;;;11.40;2.20;;;10.80;99.90;;;;;;5092818;28;20044;-50
2023/12/25 10:17:17;;;;;;;11.15;2.20;;;10.90;99.90;;;;;;5093634;28;20066;-47
2023/12/25 10:19:54;;;;;;;10.45;2.00;;;11.00;99.90;;;;;;5092389;28;20044;-47
2023/12/25 10:22:37;;;;;;;10.02;1.90;;;11.10;99.90;;;;;;5092149;28;20417;-47
2023/12/25 10:25:09;;;;;;;9.88;2.25;;;11.00;99.90;;;;;;5092886;28;20477;-46
2023/12/25 10:27:37;;;;;;;13.30;2.13;;;11.00;99.90;;;;;;5092044;28;20036;-46
2023/12/25 10:30:03;;;;;;;6.68;1.85;;;11.00;99.90;;;;;;5087936;28;20043;-47
2023/12/25 10:32:31;;;;;;;11.77;2.30;;;11.10;99.90;;;;;;5083714;28;20194;-48
2023/12/25 10:35:19;;;;;;;7.30;2.08;;;11.10;99.90;;;;;;5089680;28;20050;-47
2023/12/25 10:37:46;;;;;;;12.30;2.42;;;11.10;99.90;;;;;;5085751;28;20381;-46
2023/12/25 10:40:23;;;;;;;9.70;1.60;;;11.10;99.90;;;;;;5088037;28;20102;-47
2023/12/25 10:42:55;;;;;;;12.77;2.30;;;11.10;99.90;;;;;;5088357;28;20048;-46
2023/12/25 10:45:23;;;;;;;10.10;1.88;;;11.20;99.90;;;;;;5091837;28;20078;-46
2023/12/25 10:47:57;;;;;;;9.20;1.65;;;11.20;99.90;;;;;;5091378;28;20051;-46
2023/12/25 10:50:27;;;;;;;9.40;2.20;;;11.10;99.90;;;;;;5091186;28;20040;-46
2023/12/25 10:52:54;;;;;;;9.13;2.00;;;11.20;99.90;;;;;;5091198;28;20085;-46
2023/12/25 10:55:39;;;;;;;10.98;2.65;;;11.10;99.90;;;;;;5090631;28;20485;-46
2023/12/25 10:58:07;;;;;;;13.43;2.05;;;11.10;99.90;;;;;;5081719;28;20036;-47
2023/12/25 11:00:36;;;;;;;9.73;2.43;;;11.20;99.90;;;;;;5090877;28;20435;-48
2023/12/25 11:03:03;;;;;;;8.10;1.85;;;11.10;99.90;;;;;;5087086;28;20343;-47
2023/12/25 11:05:31;;;;;;;10.43;2.20;;;11.10;99.90;;;;;;5091574;28;20117;-48
2023/12/25 11:07:58;;;;;;;8.70;1.90;;;11.20;99.90;;;;;;5092086;28;20093;-48
2023/12/25 11:10:25;;;;;;;7.77;1.93;;;11.20;99.90;;;;;;5092542;28;20040;-46
2023/12/25 11:12:51;;;;;;;11.25;1.80;;;11.20;99.90;;;;;;5091995;28;20052;-46
2023/12/25 11:15:17;;;;;;;11.82;2.05;;;11.20;99.90;;;;;;5088014;28;20069;-46
2023/12/25 11:17:43;;;;;;;9.85;1.90;;;11.20;99.90;;;;;;5090202;28;20493;-47
2023/12/25 11:20:10;;;;;;;7.35;1.70;;;11.20;99.90;;;;;;5087801;28;20097;-47
2023/12/25 11:22:36;;;;;;;10.00;2.42;;;11.20;99.90;;;;;;5091827;28;20047;-49
2023/12/25 11:25:03;;;;;;;9.45;2.60;;;11.20;99.90;;;;;;5091133;28;20040;-49
2023/12/25 11:27:32;;;;;;;10.68;2.20;;;11.20;99.90;;;;;;5093121;28;20044;-47
2023/12/25 11:30:08;;;;;;;7.43;1.60;;;11.20;99.90;;;;;;5086007;28;20156;-46
2023/12/25 11:32:45;;;;;;;10.23;1.90;;;11.20;99.90;;;;;;5088127;28;20055;-47
2023/12/25 11:35:12;;;;;;;8.23;1.83;;;11.30;99.90;;;;;;5091262;28;20044;-46
2023/12/25 11:37:38;;;;;;;10.88;2.00;;;11.30;99.90;;;;;;5089835;28;20120;-46
2023/12/25 11:40:05;;;;;;;8.07;2.00;;;11.20;99.90;;;;;;5091621;28;20508;-46
2023/12/25 11:42:32;;;;;;;12.15;1.90;;;11.20;99.90;;;;;;5080277;28;20040;-49
2023/12/25 11:45:01;;;;;;;7.82;1.95;;;11.10;99.90;;;;;;5073480;28;20115;-47
2023/12/25 11:47:28;;;;;;;12.15;2.63;;;11.10;99.90;;;;;;5080873;28;20489;-46
2023/12/25 11:49:56;;;;;;;10.82;3.35;;;11.00;99.90;;;;;;5086660;28;20082;-47
2023/12/25 11:52:44;;;;;;;11.50;3.63;;;11.00;99.90;;;;;;5088954;28;20036;-47
2023/12/25 11:55:13;;;;;;;11.77;3.10;;;11.00;99.90;;;;;;5091262;28;20052;-46
2023/12/25 11:57:41;;;;;;;9.45;2.35;;;11.10;99.90;;;;;;5090388;28;20134;-46
2023/12/25 12:00:14;;;;;;;5.68;2.10;;;11.10;99.90;;;;;;5091545;28;20048;-46
2023/12/25 12:02:39;;;;;;;6.00;1.85;;;11.10;99.90;;;;;;5092024;28;20090;-47
2023/12/25 12:05:05;;;;;;;7.28;2.00;;;11.00;99.90;;;;;;5083026;28;20446;-50
2023/12/25 12:07:31;;;;;;;7.50;2.35;;;11.00;99.90;;;;;;5086044;28;20047;-47
2023/12/25 12:09:56;;;;;;;12.10;2.55;;;11.00;99.90;;;;;;5094063;28;20071;-50
2023/12/25 12:12:22;;;;;;;11.50;2.25;;;11.00;99.90;;;;;;5095395;28;20126;-46
2023/12/25 12:14:47;;;;;;;12.43;2.90;;;10.90;99.90;;;;;;5096450;28;20040;-46
2023/12/25 12:17:13;;;;;;;7.75;2.15;;;10.90;99.90;;;;;;5091278;28;20036;-47
2023/12/25 12:19:39;;;;;;;10.30;2.67;;;10.90;99.90;;;;;;5093292;28;20109;-46
2023/12/25 12:22:05;;;;;;;10.27;2.20;;;10.90;99.90;;;;;;5089419;28;20040;-46
2023/12/25 12:24:31;;;;;;;9.13;1.88;;;10.90;99.90;;;;;;5082693;28;20048;-46
2023/12/25 12:27:11;;;;;;;7.35;2.65;;;10.80;99.90;;;;;;5093964;28;20048;-46
2023/12/25 12:29:40;;;;;;;9.52;1.98;;;10.80;99.90;;;;;;5094454;28;20055;-47
2023/12/25 12:32:06;;;;;;;9.35;2.38;;;10.80;99.90;;;;;;5091858;28;21337;-46
2023/12/25 12:34:32;;;;;;;7.68;2.35;;;10.80;99.90;;;;;;5091594;28;20040;-49
2023/12/25 12:37:04;;;;;;;11.05;2.63;;;10.80;99.90;;;;;;5094688;28;20036;-48